Time;durP1;ratioP1;P1;durP2;ratioP2;P2;SDS_P1;SDS_P2;PMS_P1;PMS_P2;Temp;Humidity;BMP_temperature;BMP_pressure;BME280_temperature;BME280_humidity;BME280_pressure;Samples;Min_cycle;Max_cycle;Signal;HPM_P1;HPM_P2
2023/06/21 00:01:49;;;;;;;27.85;24.10;;;;;;;;;;1812592;79;26238;-51
2023/06/21 00:04:17;;;;;;;30.82;25.05;;;;;;;;;;1812745;79;25350;-52
2023/06/21 00:06:49;;;;;;;31.70;25.72;;;;;;;;;;1812727;78;27933;-51
2023/06/21 00:09:18;;;;;;;29.35;25.30;;;;;;;;;;1812545;78;25462;-51
2023/06/21 00:11:45;;;;;;;28.92;25.05;;;;;;;;;;1812602;78;25338;-51
2023/06/21 00:14:12;;;;;;;29.45;24.77;;;;;;;;;;1812517;79;26086;-51
2023/06/21 00:16:39;;;;;;;31.70;23.62;;;;;;;;;;1812544;78;25510;-53
2023/06/21 00:19:06;;;;;;;30.97;24.87;;;;;;;;;;1812482;78;27899;-51
2023/06/21 00:21:33;;;;;;;33.00;25.57;;;;;;;;;;1812470;79;25363;-54
2023/06/21 00:24:02;;;;;;;33.23;26.52;;;;;;;;;;1812540;79;25277;-51
2023/06/21 00:26:29;;;;;;;29.57;25.57;;;;;;;;;;1812770;79;25586;-52
2023/06/21 00:28:58;;;;;;;29.82;25.40;;;;;;;;;;1812739;78;25460;-52
2023/06/21 00:31:24;;;;;;;28.80;24.47;;;;;;;;;;1812531;79;27420;-51
2023/06/21 00:33:51;;;;;;;28.83;24.82;;;;;;;;;;1812417;79;25330;-52
2023/06/21 00:36:18;;;;;;;29.02;25.25;;;;;;;;;;1812583;79;25433;-51
2023/06/21 00:38:46;;;;;;;30.37;24.23;;;;;;;;;;1812471;79;25592;-52
2023/06/21 00:41:14;;;;;;;31.23;25.37;;;;;;;;;;1813524;78;25358;-51
2023/06/21 00:43:41;;;;;;;33.45;25.97;;;;;;;;;;1807148;79;28115;-51
2023/06/21 00:46:08;;;;;;;30.40;23.83;;;;;;;;;;1807019;79;25354;-52
2023/06/21 00:48:35;;;;;;;30.88;25.55;;;;;;;;;;1807131;79;25529;-52
2023/06/21 00:51:04;;;;;;;33.33;24.18;;;;;;;;;;1807097;79;26142;-52
2023/06/21 00:53:33;;;;;;;29.02;23.87;;;;;;;;;;1807170;78;25289;-51
2023/06/21 00:56:02;;;;;;;32.42;23.90;;;;;;;;;;1807340;78;27891;-51
2023/06/21 00:58:29;;;;;;;29.80;23.55;;;;;;;;;;1807079;78;25690;-53
2023/06/21 01:00:58;;;;;;;30.65;23.62;;;;;;;;;;1807327;78;25510;-53
2023/06/21 01:03:28;;;;;;;30.45;25.55;;;;;;;;;;1807174;79;25468;-52
2023/06/21 01:06:08;;;;;;;27.70;23.80;;;;;;;;;;1807285;78;25499;-52
2023/06/21 01:08:56;;;;;;;32.03;25.08;;;;;;;;;;1807088;79;28610;-52
2023/06/21 01:11:28;;;;;;;27.95;24.23;;;;;;;;;;1806727;78;26743;-51
2023/06/21 01:14:20;;;;;;;30.43;24.80;;;;;;;;;;1807106;79;25271;-52
2023/06/21 01:16:51;;;;;;;34.08;26.55;;;;;;;;;;1807072;79;25427;-52
2023/06/21 01:19:41;;;;;;;29.25;24.63;;;;;;;;;;1807173;79;25508;-53
2023/06/21 01:22:18;;;;;;;28.47;23.22;;;;;;;;;;1807158;79;27439;-51
2023/06/21 01:25:06;;;;;;;32.23;22.60;;;;;;;;;;1806553;79;25489;-54
2023/06/21 01:27:54;;;;;;;32.10;22.67;;;;;;;;;;1807004;78;25418;-52
2023/06/21 01:30:22;;;;;;;35.13;31.45;;;;;;;;;;1806761;78;26221;-54
2023/06/21 01:32:53;;;;;;;;;;;;;;;;;;1809774;79;25410;-54
2023/06/21 01:35:22;;;;;;;27.10;23.87;;;;;;;;;;1794743;79;27428;-53
2023/06/21 01:37:51;;;;;;;31.40;23.55;;;;;;;;;;1807011;79;25834;-54
2023/06/21 01:40:19;;;;;;;46.90;42.55;;;;;;;;;;1807434;79;25343;-54
2023/06/21 01:42:48;;;;;;;28.35;24.25;;;;;;;;;;1811203;79;30357;-51
2023/06/21 01:45:16;;;;;;;28.70;24.50;;;;;;;;;;1812726;78;25042;-51
2023/06/21 01:47:45;;;;;;;27.48;24.30;;;;;;;;;;1812551;78;27394;-51
2023/06/21 01:50:14;;;;;;;28.65;23.73;;;;;;;;;;1812557;79;25331;-51
2023/06/21 01:52:46;;;;;;;26.87;22.22;;;;;;;;;;1812568;78;25293;-51
2023/06/21 01:55:15;;;;;;;28.73;23.67;;;;;;;;;;1812461;78;25555;-52
2023/06/21 01:57:42;;;;;;;29.02;22.80;;;;;;;;;;1812598;78;25509;-51
2023/06/21 02:00:16;;;;;;;28.42;23.65;;;;;;;;;;1812577;79;27382;-53
2023/06/21 02:02:47;;;;;;;31.57;25.37;;;;;;;;;;1812464;79;25410;-54
2023/06/21 02:05:16;;;;;;;31.25;24.85;;;;;;;;;;1812529;78;25352;-52
2023/06/21 02:07:48;;;;;;;31.37;24.10;;;;;;;;;;1812448;78;25583;-51
2023/06/21 02:10:20;;;;;;;25.88;23.12;;;;;;;;;;1812558;78;25344;-54
2023/06/21 02:12:56;;;;;;;28.55;23.67;;;;;;;;;;1812407;79;27511;-53
2023/06/21 02:15:22;;;;;;;28.77;23.90;;;;;;;;;;1810789;78;25289;-52
2023/06/21 02:17:53;;;;;;;30.23;25.17;;;;;;;;;;1812440;78;25689;-52
2023/06/21 02:20:22;;;;;;;27.32;23.98;;;;;;;;;;1812425;78;25631;-53
2023/06/21 02:22:49;;;;;;;29.12;22.50;;;;;;;;;;1812513;78;25452;-53
2023/06/21 02:25:17;;;;;;;33.55;24.67;;;;;;;;;;1812444;79;27333;-51
2023/06/21 02:27:44;;;;;;;29.05;21.68;;;;;;;;;;1812500;79;25311;-53
2023/06/21 02:30:14;;;;;;;28.40;23.38;;;;;;;;;;1812489;79;25469;-52
2023/06/21 02:32:41;;;;;;;30.85;24.95;;;;;;;;;;1812365;79;26061;-55
2023/06/21 02:35:10;;;;;;;30.70;23.98;;;;;;;;;;1812615;78;25306;-54
2023/06/21 02:37:37;;;;;;;31.05;27.80;;;;;;;;;;1812452;78;27436;-54
2023/06/21 02:40:10;;;;;;;32.03;23.70;;;;;;;;;;1812368;79;25469;-52
2023/06/21 02:42:38;;;;;;;28.65;25.17;;;;;;;;;;1807623;79;25496;-55
2023/06/21 02:45:10;;;;;;;33.02;24.37;;;;;;;;;;1795743;79;25572;-51
2023/06/21 02:47:37;;;;;;;29.30;23.07;;;;;;;;;;1807093;79;25457;-53
2023/06/21 02:50:09;;;;;;;31.02;26.15;;;;;;;;;;1807028;79;27558;-55
2023/06/21 02:52:36;;;;;;;32.25;25.17;;;;;;;;;;1807069;78;25877;-52
2023/06/21 02:55:09;;;;;;;30.37;25.15;;;;;;;;;;1807040;78;25568;-51
2023/06/21 02:57:36;;;;;;;28.87;25.72;;;;;;;;;;1806929;78;25646;-51
2023/06/21 03:00:27;;;;;;;28.57;23.80;;;;;;;;;;1807037;78;25450;-51
2023/06/21 03:03:01;;;;;;;28.60;23.83;;;;;;;;;;1806621;78;32818;-52
2023/06/21 03:05:38;;;;;;;28.70;24.20;;;;;;;;;;1807063;78;25814;-53
2023/06/21 03:08:04;;;;;;;53.78;49.05;;;;;;;;;;1806203;78;25495;-52
2023/06/21 03:10:34;;;;;;;27.65;24.72;;;;;;;;;;1807070;79;25500;-51
2023/06/21 03:13:01;;;;;;;28.73;25.00;;;;;;;;;;1795996;79;25373;-52
2023/06/21 03:15:29;;;;;;;29.52;25.52;;;;;;;;;;1807013;79;27411;-52
2023/06/21 03:17:56;;;;;;;31.82;26.60;;;;;;;;;;1807063;78;25296;-51
2023/06/21 03:20:24;;;;;;;29.35;24.63;;;;;;;;;;1806977;79;25460;-53
2023/06/21 03:22:52;;;;;;;32.48;23.12;;;;;;;;;;1807085;79;26113;-52
2023/06/21 03:25:19;;;;;;;27.17;23.32;;;;;;;;;;1807098;78;25525;-51
2023/06/21 03:27:47;;;;;;;30.12;26.02;;;;;;;;;;1806990;79;27943;-50
2023/06/21 03:30:15;;;;;;;30.27;24.37;;;;;;;;;;1807047;79;25441;-53
2023/06/21 03:32:48;;;;;;;29.12;23.67;;;;;;;;;;1807010;78;25279;-52
2023/06/21 03:35:19;;;;;;;29.30;23.70;;;;;;;;;;1807030;78;26359;-52
2023/06/21 03:37:48;;;;;;;26.25;21.62;;;;;;;;;;1807132;78;25569;-52
2023/06/21 03:40:15;;;;;;;27.20;23.67;;;;;;;;;;1807126;78;28389;-52
2023/06/21 03:42:46;;;;;;;27.20;23.45;;;;;;;;;;1806944;79;25683;-52
2023/06/21 03:45:14;;;;;;;27.17;24.25;;;;;;;;;;1807105;78;25494;-50
2023/06/21 03:47:43;;;;;;;25.48;22.27;;;;;;;;;;1807236;78;25699;-53
2023/06/21 03:50:15;;;;;;;29.20;23.73;;;;;;;;;;1807367;79;25330;-52
2023/06/21 03:52:39;;;;;;;25.25;22.58;;;;;;;;;;1807132;78;27382;-55
2023/06/21 03:55:09;;;;;;;26.45;20.15;;;;;;;;;;1807181;79;25273;-54
2023/06/21 03:57:38;;;;;;;24.25;21.35;;;;;;;;;;1807126;78;25465;-55
2023/06/21 04:00:11;;;;;;;24.82;21.70;;;;;;;;;;1807147;79;26272;-53
2023/06/21 04:02:38;;;;;;;23.83;21.23;;;;;;;;;;1807191;79;25572;-53
2023/06/21 04:05:10;;;;;;;33.35;29.92;;;;;;;;;;1807173;78;27358;-55
2023/06/21 04:07:46;;;;;;;25.77;21.48;;;;;;;;;;1807112;79;25846;-51
2023/06/21 04:10:14;;;;;;;23.42;20.90;;;;;;;;;;1807094;79;25281;-53
2023/06/21 04:12:42;;;;;;;;;;;;;;;;;;1809891;79;25546;-55
2023/06/21 04:15:11;;;;;;;22.50;19.95;;;;;;;;;;1807180;79;25310;-53
2023/06/21 04:17:39;;;;;;;25.12;20.10;;;;;;;;;;1807103;79;27920;-53
2023/06/21 04:20:13;;;;;;;37.03;33.67;;;;;;;;;;1807024;79;25449;-53
2023/06/21 04:22:42;;;;;;;24.52;19.82;;;;;;;;;;1807203;79;25293;-55
2023/06/21 04:25:13;;;;;;;25.45;20.27;;;;;;;;;;1807201;78;25568;-53
2023/06/21 04:27:40;;;;;;;23.27;18.87;;;;;;;;;;1807177;78;25493;-53
2023/06/21 04:30:11;;;;;;;22.25;19.85;;;;;;;;;;1807377;79;27471;-52
2023/06/21 04:32:46;;;;;;;20.35;18.15;;;;;;;;;;1807051;79;25438;-54
2023/06/21 04:35:17;;;;;;;23.77;18.67;;;;;;;;;;1807121;78;25421;-52
2023/06/21 04:37:48;;;;;;;19.45;17.35;;;;;;;;;;1807042;79;25502;-55
2023/06/21 04:40:18;;;;;;;22.93;17.42;;;;;;;;;;1807185;78;25328;-52
2023/06/21 04:42:55;;;;;;;21.85;19.62;;;;;;;;;;1807100;78;27360;-53
2023/06/21 04:45:26;;;;;;;20.60;18.40;;;;;;;;;;1807015;79;25474;-48
2023/06/21 04:47:57;;;;;;;19.00;16.97;;;;;;;;;;1807084;78;25512;-49
2023/06/21 04:50:22;;;;;;;18.98;17.05;;;;;;;;;;1806552;78;25509;-51
2023/06/21 04:52:57;;;;;;;19.17;17.32;;;;;;;;;;1807291;78;25538;-49
2023/06/21 04:55:21;;;;;;;18.57;16.73;;;;;;;;;;1806561;78;27933;-49
2023/06/21 04:57:50;;;;;;;19.30;17.25;;;;;;;;;;1806993;79;25426;-48
2023/06/21 05:00:19;;;;;;;18.82;16.97;;;;;;;;;;1807136;79;25331;-50
2023/06/21 05:02:48;;;;;;;19.80;17.75;;;;;;;;;;1807195;78;25446;-49
2023/06/21 05:05:17;;;;;;;19.05;17.30;;;;;;;;;;1807328;78;25457;-49
2023/06/21 05:07:44;;;;;;;18.87;16.93;;;;;;;;;;1796144;79;27420;-49
2023/06/21 05:10:15;;;;;;;19.87;17.85;;;;;;;;;;1806964;79;25506;-49
2023/06/21 05:12:42;;;;;;;18.85;17.02;;;;;;;;;;1807075;78;25303;-50
2023/06/21 05:15:12;;;;;;;18.42;16.60;;;;;;;;;;1807009;79;26271;-50
2023/06/21 05:17:39;;;;;;;19.02;16.82;;;;;;;;;;1807108;79;25270;-49
2023/06/21 05:20:11;;;;;;;19.17;16.48;;;;;;;;;;1807053;79;27845;-50
2023/06/21 05:22:41;;;;;;;18.30;16.50;;;;;;;;;;1807033;78;25499;-51
2023/06/21 05:25:13;;;;;;;18.10;16.27;;;;;;;;;;1807166;78;25520;-51
2023/06/21 05:27:40;;;;;;;18.98;17.02;;;;;;;;;;1806965;78;25578;-49
2023/06/21 05:30:12;;;;;;;18.37;16.48;;;;;;;;;;1807076;79;25304;-50
2023/06/21 05:32:39;;;;;;;18.32;16.32;;;;;;;;;;1807063;79;27761;-53
2023/06/21 05:35:08;;;;;;;18.07;16.32;;;;;;;;;;1806977;78;25477;-52
2023/06/21 05:37:36;;;;;;;17.25;15.53;;;;;;;;;;1807117;78;25452;-51
2023/06/21 05:40:10;;;;;;;18.32;16.52;;;;;;;;;;1807114;79;26071;-54
2023/06/21 05:42:37;;;;;;;17.55;15.83;;;;;;;;;;1806974;78;25484;-54
2023/06/21 05:45:09;;;;;;;17.85;15.95;;;;;;;;;;1806839;79;27352;-51
2023/06/21 05:47:36;;;;;;;17.10;15.30;;;;;;;;;;1806857;78;25446;-55
2023/06/21 05:50:08;;;;;;;17.70;15.63;;;;;;;;;;1807117;79;25510;-52
2023/06/21 05:52:37;;;;;;;17.30;15.50;;;;;;;;;;1807154;79;25439;-52
2023/06/21 05:55:09;;;;;;;17.87;16.05;;;;;;;;;;1807378;78;25272;-52
2023/06/21 05:57:36;;;;;;;28.38;25.88;;;;;;;;;;1807118;79;27524;-49
2023/06/21 06:00:09;;;;;;;16.67;14.50;;;;;;;;;;1806863;79;25645;-52
2023/06/21 06:02:39;;;;;;;16.07;14.13;;;;;;;;;;1807120;79;25346;-49
2023/06/21 06:05:10;;;;;;;76.07;70.72;;;;;;;;;;1806952;79;25861;-49
2023/06/21 06:07:39;;;;;;;75.90;70.67;;;;;;;;;;1807162;78;25307;-51
2023/06/21 06:10:11;;;;;;;;;;;;;;;;;;1809771;78;27009;-52
2023/06/21 06:12:38;;;;;;;52.20;48.83;;;;;;;;;;1807005;79;25310;-51
2023/06/21 06:15:12;;;;;;;16.00;14.43;;;;;;;;;;1806971;79;25328;-51
2023/06/21 06:17:39;;;;;;;15.15;13.45;;;;;;;;;;1806993;79;25521;-49
2023/06/21 06:20:13;;;;;;;54.38;50.90;;;;;;;;;;1806965;79;25441;-50
2023/06/21 06:22:40;;;;;;;79.75;73.90;;;;;;;;;;1807051;78;28437;-50
2023/06/21 06:25:10;;;;;;;16.82;11.18;;;;;;;;;;1806477;78;25540;-50
2023/06/21 06:27:38;;;;;;;14.83;13.43;;;;;;;;;;1807067;79;25513;-49
2023/06/21 06:30:11;;;;;;;13.88;12.47;;;;;;;;;;1806917;78;26171;-51
2023/06/21 06:32:38;;;;;;;14.38;12.47;;;;;;;;;;1807184;78;25463;-49
2023/06/21 06:35:09;;;;;;;13.40;12.10;;;;;;;;;;1807091;78;27943;-53
2023/06/21 06:37:37;;;;;;;14.55;13.08;;;;;;;;;;1807116;79;25486;-52
2023/06/21 06:40:09;;;;;;;13.83;12.43;;;;;;;;;;1807130;78;25705;-52
2023/06/21 06:42:36;;;;;;;14.58;12.45;;;;;;;;;;1807775;78;25568;-49
2023/06/21 06:45:08;;;;;;;14.28;12.88;;;;;;;;;;1807052;79;25509;-49
2023/06/21 06:47:35;;;;;;;75.20;70.05;;;;;;;;;;1809197;78;27385;-50
2023/06/21 06:50:07;;;;;;;13.35;12.05;;;;;;;;;;1812361;79;25569;-52
2023/06/21 06:52:34;;;;;;;14.35;13.03;;;;;;;;;;1812483;78;25472;-51
2023/06/21 06:55:01;;;;;;;14.63;12.58;;;;;;;;;;1812393;78;25552;-49
2023/06/21 06:57:29;;;;;;;14.18;11.88;;;;;;;;;;1812692;78;25321;-49
2023/06/21 06:59:56;;;;;;;12.82;11.60;;;;;;;;;;1812496;79;27355;-51
2023/06/21 07:02:25;;;;;;;17.62;13.08;;;;;;;;;;1812395;79;25323;-50
2023/06/21 07:04:52;;;;;;;12.85;11.53;;;;;;;;;;1812597;78;29619;-51
2023/06/21 07:07:19;;;;;;;12.78;11.50;;;;;;;;;;1812423;78;25626;-51
2023/06/21 07:09:46;;;;;;;73.40;68.87;;;;;;;;;;1812455;78;25453;-52
2023/06/21 07:12:13;;;;;;;74.00;69.40;;;;;;;;;;1812444;78;27375;-60
2023/06/21 07:14:40;;;;;;;73.02;68.42;;;;;;;;;;1812321;79;25606;-58
2023/06/21 07:17:07;;;;;;;72.47;68.02;;;;;;;;;;1812470;79;25315;-58
2023/06/21 07:19:34;;;;;;;73.20;68.57;;;;;;;;;;1812504;79;26105;-58
2023/06/21 07:22:01;;;;;;;75.42;70.72;;;;;;;;;;1812651;78;25488;-58
2023/06/21 07:24:28;;;;;;;73.25;68.75;;;;;;;;;;1812611;79;27354;-58
2023/06/21 07:26:55;;;;;;;70.75;66.05;;;;;;;;;;1812491;78;25416;-58
2023/06/21 07:29:22;;;;;;;10.93;9.70;;;;;;;;;;1812449;78;25623;-60
2023/06/21 07:31:49;;;;;;;10.10;9.10;;;;;;;;;;1812657;79;25884;-58
2023/06/21 07:34:16;;;;;;;10.30;9.40;;;;;;;;;;1812654;78;25543;-58
2023/06/21 07:36:43;;;;;;;10.63;9.63;;;;;;;;;;1812575;79;27346;-57
2023/06/21 07:39:13;;;;;;;11.00;10.03;;;;;;;;;;1812560;79;25685;-57
2023/06/21 07:41:40;;;;;;;10.43;9.53;;;;;;;;;;1812718;78;25484;-58
2023/06/21 07:44:08;;;;;;;14.03;12.82;;;;;;;;;;1812510;78;25536;-57
2023/06/21 07:46:36;;;;;;;;;;;;;;;;;;1815350;78;25522;-56
2023/06/21 07:49:03;;;;;;;21.48;19.62;;;;;;;;;;1812729;78;27902;-59
2023/06/21 07:51:30;;;;;;;69.80;65.60;;;;;;;;;;1812489;78;25444;-57
2023/06/21 07:53:57;;;;;;;1.75;1.75;;;;;;;;;;1812595;79;25597;-58
2023/06/21 07:56:24;;;;;;;67.55;63.02;;;;;;;;;;1812671;78;25483;-57
2023/06/21 07:58:51;;;;;;;69.72;65.42;;;;;;;;;;1812536;78;25497;-59
2023/06/21 08:01:18;;;;;;;58.90;55.12;;;;;;;;;;1812554;79;27437;-59
2023/06/21 08:03:44;;;;;;;1.85;1.85;;;;;;;;;;1812630;79;25505;-57
2023/06/21 08:06:12;;;;;;;3.50;3.30;;;;;;;;;;1812656;79;32181;-58
